createdAt,value
2023-04-09T00:01:38.796Z,-0.11
2023-04-09T00:03:19.265Z,-0.13
2023-04-09T00:04:59.567Z,-0.15
2023-04-09T00:06:39.865Z,-0.21
2023-04-09T00:08:20.279Z,-0.27
2023-04-09T00:10:00.625Z,-0.31
2023-04-09T00:11:40.976Z,-0.32
2023-04-09T00:13:31.905Z,-0.38
2023-04-09T00:15:01.788Z,-0.42
2023-04-09T00:16:42.279Z,-0.45
2023-04-09T00:18:22.638Z,-0.47
2023-04-09T00:20:03.105Z,-0.43
2023-04-09T00:21:43.528Z,-0.45
2023-04-09T00:23:23.877Z,-0.48
2023-04-09T00:25:04.333Z,-0.49
2023-04-09T00:26:44.761Z,-0.48
2023-04-09T00:28:25.196Z,-0.51
2023-04-09T00:30:05.567Z,-0.57
2023-04-09T00:31:46.039Z,-0.55
2023-04-09T00:33:26.416Z,-0.62
2023-04-09T00:35:06.878Z,-0.65
2023-04-09T00:36:47.251Z,-0.68
2023-04-09T00:38:27.642Z,-0.68
2023-04-09T00:40:08.063Z,-0.7
2023-04-09T00:41:48.502Z,-0.72
2023-04-09T00:43:28.883Z,-0.73
2023-04-09T00:45:09.477Z,-0.76
2023-04-09T00:46:49.884Z,-0.76
2023-04-09T00:48:30.323Z,-0.8
2023-04-09T00:50:10.717Z,-0.79
2023-04-09T00:51:51.153Z,-0.8
2023-04-09T00:53:31.548Z,-0.8
2023-04-09T00:55:11.993Z,-0.82
2023-04-09T00:56:52.445Z,-0.83
2023-04-09T00:58:32.805Z,-0.88
2023-04-09T01:00:13.274Z,-0.89
2023-04-09T01:01:53.568Z,-0.85
2023-04-09T01:03:33.955Z,-0.72
2023-04-09T01:05:14.295Z,-0.68
2023-04-09T01:06:54.666Z,-0.68
2023-04-09T01:08:35.035Z,-0.73
2023-04-09T01:10:15.381Z,-0.76
2023-04-09T01:11:55.772Z,-0.79
2023-04-09T01:13:36.200Z,-0.8
2023-04-09T01:15:16.630Z,-0.82
2023-04-09T01:16:57.089Z,-0.89
2023-04-09T01:18:37.460Z,-0.92
2023-04-09T01:20:17.916Z,-0.89
2023-04-09T01:21:58.309Z,-0.89
2023-04-09T01:23:38.719Z,-0.89
2023-04-09T01:25:19.213Z,-0.9
2023-04-09T01:26:59.676Z,-0.89
2023-04-09T01:28:40.137Z,-0.9
2023-04-09T01:30:20.599Z,-0.92
2023-04-09T01:32:01.015Z,-0.92
2023-04-09T01:33:41.419Z,-0.94
2023-04-09T01:35:21.782Z,-0.99
2023-04-09T01:37:02.169Z,-1.01
2023-04-09T01:38:42.574Z,-0.99
2023-04-09T01:40:23.064Z,-0.97
2023-04-09T01:42:03.454Z,-1
2023-04-09T01:43:43.909Z,-0.99
2023-04-09T01:45:24.282Z,-1.01
2023-04-09T01:47:04.674Z,-1.03
2023-04-09T01:48:44.996Z,-0.99
2023-04-09T01:50:25.383Z,-0.93
2023-04-09T01:52:05.744Z,-0.93
2023-04-09T01:53:46.209Z,-0.89
2023-04-09T01:55:26.599Z,-0.88
2023-04-09T01:57:06.944Z,-0.86
2023-04-09T01:58:47.414Z,-0.83
2023-04-09T02:00:27.673Z,-0.79
2023-04-09T02:02:08.094Z,-0.76
2023-04-09T02:03:48.636Z,-0.7
2023-04-09T02:07:09.263Z,-0.61
2023-04-09T02:08:49.840Z,-0.54
2023-04-09T02:12:10.404Z,-0.47
2023-04-09T02:13:50.834Z,-0.41
2023-04-09T02:15:31.210Z,-0.35
2023-04-09T02:17:11.679Z,-0.32
2023-04-09T02:18:52.295Z,-0.24
2023-04-09T02:20:32.559Z,-0.2
2023-04-09T02:22:12.887Z,-0.15
2023-04-09T02:23:53.355Z,-0.11
2023-04-09T02:25:33.774Z,-0.06
2023-04-09T02:27:14.122Z,0.01
2023-04-09T02:28:54.765Z,0.03
2023-04-09T02:30:34.857Z,0.08
2023-04-09T02:32:15.301Z,0.11
2023-04-09T02:33:55.695Z,0.17
2023-04-09T02:35:36.147Z,0.21
2023-04-09T02:37:16.550Z,0.25
2023-04-09T02:38:56.920Z,0.28
2023-04-09T02:40:37.286Z,0.35
2023-04-09T02:42:17.659Z,0.4
2023-04-09T02:43:58.012Z,0.44
2023-04-09T02:45:38.327Z,0.47
2023-04-09T02:47:18.661Z,0.51
2023-04-09T02:48:59.239Z,0.56
2023-04-09T02:50:39.640Z,0.61
2023-04-09T02:52:20.245Z,0.68
2023-04-09T02:54:00.483Z,0.75
2023-04-09T02:55:40.930Z,0.8
2023-04-09T02:57:21.412Z,0.82
2023-04-09T02:59:01.823Z,0.86
2023-04-09T03:00:42.147Z,0.89
2023-04-09T03:02:22.759Z,0.92
2023-04-09T03:04:02.949Z,0.97
2023-04-09T03:05:43.332Z,1.02
2023-04-09T03:07:23.724Z,1.04
2023-04-09T03:09:04.051Z,1.07
2023-04-09T03:10:44.400Z,1.12
2023-04-09T03:12:24.812Z,1.16
2023-04-09T03:14:05.202Z,1.19
2023-04-09T03:15:45.614Z,1.22
2023-04-09T03:17:25.922Z,1.27
2023-04-09T03:19:06.375Z,1.26
2023-04-09T03:20:46.720Z,1.33
2023-04-09T03:22:27.062Z,1.37
2023-04-09T03:24:07.368Z,1.37
2023-04-09T03:25:47.772Z,1.38
2023-04-09T03:27:28.210Z,1.38
2023-04-09T03:29:08.576Z,1.43
2023-04-09T03:30:49.031Z,1.44
2023-04-09T03:32:29.490Z,1.48
2023-04-09T03:34:09.850Z,1.5
2023-04-09T03:35:50.230Z,1.54
2023-04-09T03:37:30.691Z,1.55
2023-04-09T03:39:11.038Z,1.55
2023-04-09T03:40:51.399Z,1.55
2023-04-09T03:42:31.851Z,1.58
2023-04-09T03:44:12.193Z,1.57
2023-04-09T03:45:52.611Z,1.57
2023-04-09T03:47:33.011Z,1.58
2023-04-09T03:49:13.436Z,1.58
2023-04-09T03:50:53.880Z,1.59
2023-04-09T03:52:34.250Z,1.61
2023-04-09T03:54:14.688Z,1.62
2023-04-09T03:55:55.082Z,1.62
2023-04-09T03:57:35.531Z,1.62
2023-04-09T03:59:15.931Z,1.62
2023-04-09T04:00:56.331Z,1.61
2023-04-09T04:02:36.913Z,1.58
2023-04-09T04:04:17.180Z,1.58
2023-04-09T04:05:57.420Z,1.59
2023-04-09T04:07:37.773Z,1.61
2023-04-09T04:09:18.186Z,1.61
2023-04-09T04:10:58.468Z,1.59
2023-04-09T04:12:38.911Z,1.62
2023-04-09T04:14:19.227Z,1.58
2023-04-09T04:15:59.726Z,1.61
2023-04-09T04:17:40.132Z,1.58
2023-04-09T04:19:20.341Z,1.58
2023-04-09T04:21:00.800Z,1.58
2023-04-09T04:22:41.177Z,1.58
2023-04-09T04:24:21.596Z,1.65
2023-04-09T04:26:01.982Z,1.62
2023-04-09T04:27:42.232Z,1.64
2023-04-09T04:29:22.638Z,1.64
2023-04-09T04:31:02.996Z,1.68
2023-04-09T04:32:43.420Z,1.68
2023-04-09T04:34:23.851Z,1.68
2023-04-09T04:36:04.247Z,1.68
2023-04-09T04:37:44.584Z,1.65
2023-04-09T04:39:25.021Z,1.68
2023-04-09T04:41:05.450Z,1.68
2023-04-09T04:42:45.859Z,1.65
2023-04-09T04:44:26.270Z,1.62
2023-04-09T04:46:06.745Z,1.62
2023-04-09T04:47:47.178Z,1.61
2023-04-09T04:49:27.645Z,1.65
2023-04-09T04:51:08.072Z,1.66
2023-04-09T04:52:48.428Z,1.66
2023-04-09T04:54:28.843Z,1.66
2023-04-09T04:56:09.402Z,1.68
2023-04-09T04:57:49.756Z,1.69
2023-04-09T04:59:30.163Z,1.69
2023-04-09T05:01:10.798Z,1.66
2023-04-09T05:02:51.287Z,1.69
2023-04-09T05:04:31.436Z,1.69
2023-04-09T05:06:11.830Z,1.69
2023-04-09T05:07:52.191Z,1.69
2023-04-09T05:09:32.558Z,1.69
2023-04-09T05:11:13.034Z,1.71
2023-04-09T05:12:53.422Z,1.73
2023-04-09T05:14:33.855Z,1.75
2023-04-09T05:16:14.226Z,1.76
2023-04-09T05:17:54.738Z,1.83
2023-04-09T05:19:35.074Z,1.83
2023-04-09T05:21:15.492Z,1.83
2023-04-09T05:22:55.951Z,1.86
2023-04-09T05:24:36.439Z,1.85
2023-04-09T05:26:16.771Z,1.86
2023-04-09T05:27:57.199Z,1.87
2023-04-09T05:29:37.592Z,1.89
2023-04-09T05:31:18.046Z,1.92
2023-04-09T05:32:58.384Z,1.95
2023-04-09T05:34:38.733Z,1.99
2023-04-09T05:36:19.164Z,1.99
2023-04-09T05:37:59.504Z,2.01
2023-04-09T05:39:39.883Z,2.05
2023-04-09T05:41:20.214Z,2.05
2023-04-09T05:43:00.649Z,2.08
2023-04-09T05:44:41.030Z,2.1
2023-04-09T05:46:21.454Z,2.16
2023-04-09T05:48:01.979Z,2.19
2023-04-09T05:49:42.199Z,2.2
2023-04-09T05:51:22.575Z,2.23
2023-04-09T05:53:02.972Z,2.26
2023-04-09T05:54:43.457Z,2.29
2023-04-09T05:56:23.809Z,2.3
2023-04-09T05:58:04.289Z,2.33
2023-04-09T05:59:44.675Z,2.34
2023-04-09T06:01:25.103Z,2.41
2023-04-09T06:03:05.610Z,2.45
2023-04-09T06:04:45.899Z,2.5
2023-04-09T06:06:26.214Z,2.57
2023-04-09T06:08:06.604Z,2.61
2023-04-09T06:09:47.048Z,2.69
2023-04-09T06:11:27.505Z,2.75
2023-04-09T06:13:08.017Z,2.78
2023-04-09T06:14:48.390Z,2.79
2023-04-09T06:16:28.780Z,2.88
2023-04-09T06:18:09.309Z,2.89
2023-04-09T06:19:49.541Z,2.92
2023-04-09T06:21:29.981Z,3
2023-04-09T06:23:10.303Z,3.1
2023-04-09T06:24:50.808Z,3.13
2023-04-09T06:26:31.196Z,3.19
2023-04-09T06:28:11.705Z,3.22
2023-04-09T06:29:52.082Z,3.26
2023-04-09T06:31:32.425Z,3.3
2023-04-09T06:33:12.839Z,3.31
2023-04-09T06:34:53.230Z,3.36
2023-04-09T06:36:33.681Z,3.37
2023-04-09T06:38:14.090Z,3.41
2023-04-09T06:40:01.116Z,3.41
2023-04-09T06:41:34.878Z,3.41
2023-04-09T06:43:15.325Z,3.43
2023-04-09T06:44:55.745Z,3.43
2023-04-09T06:46:36.185Z,3.44
2023-04-09T06:48:16.539Z,3.49
2023-04-09T06:49:56.923Z,3.51
2023-04-09T06:51:37.279Z,3.51
2023-04-09T06:53:17.710Z,3.49
2023-04-09T06:54:58.110Z,3.49
2023-04-09T06:56:38.408Z,3.51
2023-04-09T06:58:18.843Z,3.56
2023-04-09T06:59:59.337Z,3.54
2023-04-09T07:01:42.218Z,3.54
2023-04-09T07:03:22.815Z,3.57
2023-04-09T07:05:03.075Z,3.53
2023-04-09T07:06:43.456Z,3.56
2023-04-09T07:08:23.895Z,3.58
2023-04-09T07:10:04.321Z,3.54
2023-04-09T07:11:44.753Z,3.54
2023-04-09T07:13:25.282Z,3.54
2023-04-09T07:15:05.657Z,3.53
2023-04-09T07:16:46.014Z,3.58
2023-04-09T07:18:26.479Z,3.64
2023-04-09T07:20:06.824Z,3.64
2023-04-09T07:21:47.196Z,3.61
2023-04-09T07:23:27.660Z,3.57
2023-04-09T07:25:08.118Z,3.63
2023-04-09T07:26:49.991Z,3.7
2023-04-09T07:28:29.033Z,3.74
2023-04-09T07:30:09.430Z,3.77
2023-04-09T07:31:49.997Z,3.75
2023-04-09T07:33:06.652Z,0
2023-04-09T07:34:47.581Z,3.81
2023-04-09T07:36:27.973Z,3.82
2023-04-09T07:38:08.481Z,3.91
2023-04-09T07:39:48.938Z,4.09
2023-04-09T07:41:29.306Z,4.17
2023-04-09T07:43:09.678Z,4.32
2023-04-09T07:44:50.139Z,4.49
2023-04-09T07:46:30.608Z,4.57
2023-04-09T07:48:11.010Z,4.54
2023-04-09T07:49:51.407Z,4.6
2023-04-09T07:51:31.692Z,4.73
2023-04-09T07:53:12.133Z,4.83
2023-04-09T07:54:52.489Z,4.94
2023-04-09T07:56:32.863Z,5.04
2023-04-09T07:58:13.265Z,5.1
2023-04-09T07:59:53.709Z,5.18
2023-04-09T08:01:34.072Z,5.25
2023-04-09T08:03:14.716Z,5.33
2023-04-09T08:04:55.026Z,5.42
2023-04-09T08:06:35.389Z,5.49
2023-04-09T08:08:15.742Z,5.59
2023-04-09T08:09:56.128Z,5.67
2023-04-09T08:11:36.543Z,5.77
2023-04-09T08:13:16.910Z,5.93
2023-04-09T08:14:57.283Z,6.12
2023-04-09T08:16:37.768Z,6.22
2023-04-09T08:18:18.147Z,6.28
2023-04-09T08:19:58.541Z,6.39
2023-04-09T08:21:38.915Z,6.38
2023-04-09T08:23:19.324Z,6.38
2023-04-09T08:25:02.178Z,6.33
2023-04-09T08:26:40.192Z,6.42
2023-04-09T08:28:20.493Z,6.5
2023-04-09T08:30:00.897Z,6.66
2023-04-09T08:31:41.431Z,6.83
2023-04-09T08:33:21.707Z,6.84
2023-04-09T08:35:02.099Z,6.84
2023-04-09T08:36:42.559Z,6.86
2023-04-09T08:38:23.009Z,6.88
2023-04-09T08:40:03.416Z,6.88
2023-04-09T08:41:43.906Z,6.91
2023-04-09T08:43:27.001Z,6.82
2023-04-09T08:45:04.724Z,6.77
2023-04-09T08:46:45.065Z,6.83
2023-04-09T08:48:25.521Z,6.9
2023-04-09T08:50:05.853Z,6.98
2023-04-09T08:51:46.268Z,7.07
2023-04-09T08:53:26.659Z,7.14
2023-04-09T08:55:07.101Z,7.25
2023-04-09T08:56:47.608Z,7.36
2023-04-09T08:58:27.904Z,7.44
2023-04-09T09:00:08.276Z,7.58
2023-04-09T09:01:48.791Z,7.65
2023-04-09T09:03:29.145Z,7.77
2023-04-09T09:05:09.557Z,7.8
2023-04-09T09:06:49.909Z,7.87
2023-04-09T09:08:30.344Z,7.97
2023-04-09T09:10:10.763Z,8.01
2023-04-09T09:11:51.189Z,8.13
2023-04-09T09:13:31.619Z,8.13
2023-04-09T09:15:11.990Z,8.24
2023-04-09T09:16:52.405Z,8.41
2023-04-09T09:18:32.825Z,8.55
2023-04-09T09:20:13.154Z,8.84
2023-04-09T09:21:53.493Z,9
2023-04-09T09:23:33.907Z,9.1
2023-04-09T09:25:14.326Z,9.26
2023-04-09T09:26:54.738Z,9.41
2023-04-09T09:28:35.105Z,9.41
2023-04-09T09:30:15.514Z,9.52
2023-04-09T09:31:55.900Z,9.68
2023-04-09T09:33:36.353Z,9.82
2023-04-09T09:35:16.759Z,9.93
2023-04-09T09:36:57.156Z,10.16
2023-04-09T09:38:37.569Z,10.33
2023-04-09T09:40:18.095Z,10.41
2023-04-09T09:41:59.942Z,10.51
2023-04-09T09:43:38.796Z,10.63
2023-04-09T09:45:19.153Z,10.72
2023-04-09T09:46:59.606Z,10.88
2023-04-09T09:48:39.971Z,10.99
2023-04-09T09:50:20.368Z,11.08
2023-04-09T09:52:00.764Z,11.25
2023-04-09T09:53:41.103Z,11.34
2023-04-09T09:55:21.558Z,11.59
2023-04-09T09:57:02.050Z,11.82
2023-04-09T09:58:42.509Z,12.05
2023-04-09T10:00:23.934Z,12.06
2023-04-09T10:02:03.429Z,12.27
2023-04-09T10:03:43.661Z,12.33
2023-04-09T10:05:24.090Z,12.36
2023-04-09T10:07:04.514Z,12.55
2023-04-09T10:08:44.921Z,12.69
2023-04-09T10:10:25.396Z,12.82
2023-04-09T10:12:05.783Z,12.79
2023-04-09T10:13:46.238Z,12.7
2023-04-09T10:15:26.618Z,12.79
2023-04-09T10:17:07.091Z,12.79
2023-04-09T10:18:47.438Z,12.79
2023-04-09T10:20:27.903Z,12.88
2023-04-09T10:22:08.297Z,12.91
2023-04-09T10:23:48.645Z,12.98
2023-04-09T10:25:29.001Z,13.03
2023-04-09T10:27:09.294Z,13.03
2023-04-09T10:28:49.732Z,13.1
2023-04-09T10:30:30.132Z,13.17
2023-04-09T10:32:10.466Z,13.19
2023-04-09T10:33:50.861Z,13.34
2023-04-09T10:35:31.263Z,13.52
2023-04-09T10:37:11.727Z,13.75
2023-04-09T10:38:52.380Z,13.89
2023-04-09T10:40:32.435Z,14.49
2023-04-09T10:42:12.824Z,15.02
2023-04-09T10:43:53.218Z,15.6
2023-04-09T10:45:33.645Z,15.91
2023-04-09T10:47:14.001Z,15.82
2023-04-09T10:48:54.402Z,15.78
2023-04-09T10:50:34.963Z,16.09
2023-04-09T10:52:15.123Z,16.34
2023-04-09T10:53:55.499Z,16.32
2023-04-09T10:55:35.947Z,16.05
2023-04-09T10:57:16.335Z,16.01
2023-04-09T10:58:56.819Z,16.5
2023-04-09T11:00:37.265Z,17.02
2023-04-09T11:02:17.770Z,17.22
2023-04-09T11:03:58.072Z,17.72
2023-04-09T11:05:38.549Z,18.19
2023-04-09T11:07:18.906Z,18.18
2023-04-09T11:08:59.275Z,18.29
2023-04-09T11:10:39.713Z,18.39
2023-04-09T11:12:20.050Z,18.82
2023-04-09T11:14:00.471Z,19.17
2023-04-09T11:15:40.924Z,19.39
2023-04-09T11:17:21.324Z,19.68
2023-04-09T11:19:01.644Z,19.45
2023-04-09T11:20:42.011Z,19.68
2023-04-09T11:22:22.307Z,19.92
2023-04-09T11:24:02.675Z,19.95
2023-04-09T11:25:43.090Z,19.96
2023-04-09T11:27:23.548Z,19.92
2023-04-09T11:29:03.932Z,19.73
2023-04-09T11:30:44.375Z,19.61
2023-04-09T11:32:24.791Z,19.76
2023-04-09T11:34:05.283Z,19.66
2023-04-09T11:35:45.716Z,19.55
2023-04-09T11:37:26.127Z,19.28
2023-04-09T11:39:06.553Z,19.23
2023-04-09T11:40:46.917Z,19.18
2023-04-09T11:42:27.311Z,18.97
2023-04-09T11:44:07.809Z,18.86
2023-04-09T11:45:48.675Z,18.67
2023-04-09T11:47:28.705Z,18.24
2023-04-09T11:49:09.087Z,17.81
2023-04-09T11:50:49.523Z,17.72
2023-04-09T11:52:29.928Z,18.04
2023-04-09T11:54:10.413Z,17.93
2023-04-09T11:55:50.803Z,17.79
2023-04-09T11:57:31.221Z,17.63
2023-04-09T11:59:11.626Z,17.3
2023-04-09T12:00:51.987Z,17.42
2023-04-09T12:02:32.642Z,17.9
2023-04-09T12:04:12.963Z,18.01
2023-04-09T12:05:53.334Z,18.28
2023-04-09T12:07:33.749Z,17.96
2023-04-09T12:09:14.217Z,17.56
2023-04-09T12:10:54.720Z,17.19
2023-04-09T12:12:35.055Z,17.01
2023-04-09T12:14:15.393Z,16.78
2023-04-09T12:15:57.440Z,16.53
2023-04-09T12:17:36.387Z,16.42
2023-04-09T12:19:16.747Z,16.32
2023-04-09T12:20:57.125Z,16.3
2023-04-09T12:22:37.574Z,16.33
2023-04-09T12:24:17.924Z,16.34
2023-04-09T12:25:58.353Z,16.53
2023-04-09T12:27:38.760Z,16.54
2023-04-09T12:29:19.105Z,16.52
2023-04-09T12:30:59.777Z,16.61
2023-04-09T12:32:40.018Z,16.66
2023-04-09T12:34:20.344Z,16.67
2023-04-09T12:36:00.847Z,16.7
2023-04-09T12:37:41.198Z,16.73
2023-04-09T12:39:21.601Z,16.82
2023-04-09T12:41:01.999Z,16.77
2023-04-09T12:42:42.430Z,16.71
2023-04-09T12:44:22.815Z,16.67
2023-04-09T12:46:03.391Z,16.64
2023-04-09T12:47:43.755Z,16.66
2023-04-09T12:49:24.126Z,16.75
2023-04-09T12:51:04.530Z,16.81
2023-04-09T12:52:44.879Z,16.59
2023-04-09T12:54:25.230Z,16.33
2023-04-09T12:56:05.757Z,16.26
2023-04-09T12:57:46.225Z,16.3
2023-04-09T12:59:26.554Z,16.26
2023-04-09T13:01:07.036Z,16.17
2023-04-09T13:02:47.503Z,16.19
2023-04-09T13:04:27.847Z,16.2
2023-04-09T13:06:08.147Z,16.44
2023-04-09T13:07:48.584Z,16.78
2023-04-09T13:09:29.009Z,16.82
2023-04-09T13:11:09.434Z,16.94
2023-04-09T13:12:49.808Z,17.33
2023-04-09T13:14:30.245Z,17.72
2023-04-09T13:16:10.774Z,17.93
2023-04-09T13:17:51.329Z,18.29
2023-04-09T13:19:31.688Z,18.8
2023-04-09T13:21:12.072Z,18.84
2023-04-09T13:22:52.474Z,18.12
2023-04-09T13:24:32.923Z,17.77
2023-04-09T13:26:13.265Z,17.69
2023-04-09T13:27:53.680Z,17.77
2023-04-09T13:29:34.146Z,17.42
2023-04-09T13:31:14.553Z,17.19
2023-04-09T13:32:54.935Z,17.12
2023-04-09T13:34:35.582Z,17.21
2023-04-09T13:36:15.846Z,17.46
2023-04-09T13:37:56.143Z,17.46
2023-04-09T13:39:36.552Z,17.48
2023-04-09T13:41:17.021Z,17.3
2023-04-09T13:42:57.386Z,17.18
2023-04-09T13:44:37.794Z,17.25
2023-04-09T13:46:18.314Z,17.5
2023-04-09T13:47:58.679Z,17.73
2023-04-09T13:49:39.022Z,18.38
2023-04-09T13:51:19.333Z,18.46
2023-04-09T13:52:59.739Z,19
2023-04-09T13:54:40.103Z,18.92
2023-04-09T13:56:20.524Z,19.61
2023-04-09T13:58:00.962Z,19.97
2023-04-09T13:59:41.343Z,19.99
2023-04-09T14:01:22.084Z,20.23
2023-04-09T14:03:02.388Z,20.48
2023-04-09T14:04:42.829Z,20.31
2023-04-09T14:06:23.158Z,20.44
2023-04-09T14:08:03.626Z,20.64
2023-04-09T14:09:44.043Z,20.41
2023-04-09T14:11:24.476Z,20.21
2023-04-09T14:13:04.950Z,20
2023-04-09T14:14:45.361Z,20.09
2023-04-09T14:16:25.843Z,20.15
2023-04-09T14:18:06.231Z,20.15
2023-04-09T14:19:46.728Z,20.12
2023-04-09T14:21:27.187Z,20.38
2023-04-09T14:23:07.611Z,20.19
2023-04-09T14:24:47.991Z,20.13
2023-04-09T14:26:28.365Z,19.75
2023-04-09T14:28:08.791Z,19.55
2023-04-09T14:29:49.212Z,19.3
2023-04-09T14:31:29.578Z,18.79
2023-04-09T14:33:09.951Z,18.46
2023-04-09T14:34:50.324Z,18.42
2023-04-09T14:36:30.719Z,18.27
2023-04-09T14:38:11.189Z,18.01
2023-04-09T14:39:51.639Z,17.66
2023-04-09T14:41:32.006Z,17.33
2023-04-09T14:43:12.425Z,17.12
2023-04-09T14:44:52.809Z,16.95
2023-04-09T14:46:33.161Z,16.92
2023-04-09T14:48:13.478Z,16.82
2023-04-09T14:49:54.012Z,16.5
2023-04-09T14:51:34.311Z,16.25
2023-04-09T14:53:14.749Z,15.95
2023-04-09T14:54:59.858Z,15.67
2023-04-09T14:56:38.026Z,15.43
2023-04-09T14:58:18.550Z,15.23
2023-04-09T14:59:58.949Z,15.07
2023-04-09T15:01:39.313Z,14.86
2023-04-09T15:03:19.922Z,14.78
2023-04-09T15:05:00.117Z,14.68
2023-04-09T15:06:40.521Z,14.71
2023-04-09T15:08:20.953Z,14.69
2023-04-09T15:10:01.398Z,14.71
2023-04-09T15:11:41.783Z,14.74
2023-04-09T15:13:22.207Z,14.83
2023-04-09T15:15:02.600Z,15.05
2023-04-09T15:16:43.156Z,15.3
2023-04-09T15:18:23.387Z,15.33
2023-04-09T15:20:03.739Z,15.31
2023-04-09T15:21:44.155Z,15.41
2023-04-09T15:23:24.496Z,15.56
2023-04-09T15:25:04.785Z,15.5
2023-04-09T15:26:45.266Z,15.37
2023-04-09T15:28:25.700Z,15.37
2023-04-09T15:30:06.043Z,15.43
2023-04-09T15:31:46.503Z,15.53
2023-04-09T15:33:26.808Z,15.81
2023-04-09T15:35:07.216Z,15.92
2023-04-09T15:36:47.790Z,16.11
2023-04-09T15:38:28.094Z,16.22
2023-04-09T15:40:08.438Z,16.19
2023-04-09T15:41:49.013Z,16.32
2023-04-09T15:43:29.305Z,16.43
2023-04-09T15:45:09.800Z,16.54
2023-04-09T15:46:50.077Z,16.59
2023-04-09T15:48:30.514Z,16.73
2023-04-09T15:50:10.932Z,16.74
2023-04-09T15:51:51.400Z,16.87
2023-04-09T15:53:31.763Z,17.08
2023-04-09T15:55:12.171Z,17.12
2023-04-09T15:56:52.618Z,17.14
2023-04-09T15:58:33.079Z,16.98
2023-04-09T16:00:13.513Z,16.91
2023-04-09T16:01:53.956Z,16.95
2023-04-09T16:03:34.361Z,16.98
2023-04-09T16:05:14.711Z,17
2023-04-09T16:06:55.285Z,16.92
2023-04-09T16:08:35.669Z,16.9
2023-04-09T16:10:16.140Z,16.96
2023-04-09T16:11:56.584Z,16.92
2023-04-09T16:13:36.933Z,17.05
2023-04-09T16:15:17.385Z,17.3
2023-04-09T16:16:57.855Z,17.26
2023-04-09T16:18:38.250Z,17.38
2023-04-09T16:20:18.723Z,17.62
2023-04-09T16:21:59.156Z,17.5
2023-04-09T16:23:39.551Z,17.76
2023-04-09T16:25:19.913Z,17.84
2023-04-09T16:27:00.392Z,17.67
2023-04-09T16:28:40.770Z,17.59
2023-04-09T16:30:21.171Z,17.77
2023-04-09T16:32:01.563Z,17.93
2023-04-09T16:33:41.923Z,18.07
2023-04-09T16:35:22.385Z,18.12
2023-04-09T16:37:02.796Z,18.09
2023-04-09T16:38:43.263Z,18.14
2023-04-09T16:40:23.642Z,18.09
2023-04-09T16:42:04.022Z,18.09
2023-04-09T16:43:44.353Z,18.18
2023-04-09T16:45:24.706Z,18.03
2023-04-09T16:47:05.131Z,17.8
2023-04-09T16:48:45.533Z,17.72
2023-04-09T16:50:25.868Z,17.6
2023-04-09T16:52:06.202Z,17.36
2023-04-09T16:53:46.578Z,17.12
2023-04-09T16:55:26.930Z,16.98
2023-04-09T16:57:07.293Z,16.9
2023-04-09T16:58:47.625Z,16.73
2023-04-09T17:00:28.055Z,16.59
2023-04-09T17:02:08.562Z,16.34
2023-04-09T17:03:48.946Z,16.16
2023-04-09T17:05:29.298Z,16.04
2023-04-09T17:07:09.905Z,15.91
2023-04-09T17:08:50.214Z,15.65
2023-04-09T17:10:30.301Z,15.51
2023-04-09T17:12:10.638Z,15.27
2023-04-09T17:13:50.988Z,15.09
2023-04-09T17:15:31.479Z,14.96
2023-04-09T17:17:12.134Z,14.78
2023-04-09T17:18:52.710Z,14.64
2023-04-09T17:20:32.762Z,14.49
2023-04-09T17:22:13.189Z,14.28
2023-04-09T17:23:53.584Z,14.13
2023-04-09T17:25:34.017Z,13.96
2023-04-09T17:27:14.553Z,13.75
2023-04-09T17:28:55.198Z,13.62
2023-04-09T17:30:35.358Z,13.46
2023-04-09T17:32:15.762Z,13.37
2023-04-09T17:33:56.189Z,13.22
2023-04-09T17:35:36.638Z,13.17
2023-04-09T17:37:17.040Z,13.04
2023-04-09T17:38:57.464Z,12.97
2023-04-09T17:40:37.763Z,12.87
2023-04-09T17:42:18.098Z,12.79
2023-04-09T17:43:58.395Z,12.69
2023-04-09T17:45:38.652Z,12.6
2023-04-09T17:47:19.142Z,12.52
2023-04-09T17:48:59.589Z,12.46
2023-04-09T17:50:39.890Z,12.39
2023-04-09T17:52:20.385Z,12.27
2023-04-09T17:54:00.731Z,12.17
2023-04-09T17:55:41.219Z,12.05
2023-04-09T17:57:21.677Z,11.98
2023-04-09T17:59:02.178Z,11.85
2023-04-09T18:00:42.592Z,11.78
2023-04-09T18:02:23.268Z,11.73
2023-04-09T18:04:03.698Z,11.63
2023-04-09T18:05:44.052Z,11.53
2023-04-09T18:07:24.298Z,11.39
2023-04-09T18:09:04.749Z,11.3
2023-04-09T18:10:45.143Z,11.16
2023-04-09T18:12:25.553Z,11.04
2023-04-09T18:14:05.866Z,10.96
2023-04-09T18:15:46.182Z,10.85
2023-04-09T18:17:26.570Z,10.68
2023-04-09T18:19:06.824Z,10.54
2023-04-09T18:20:47.091Z,10.37
2023-04-09T18:22:27.414Z,10.16
2023-04-09T18:24:07.764Z,10
2023-04-09T18:25:48.000Z,9.85
2023-04-09T18:27:28.386Z,9.71
2023-04-09T18:29:08.758Z,9.62
2023-04-09T18:30:49.085Z,9.45
2023-04-09T18:32:29.367Z,9.37
2023-04-09T18:34:09.692Z,9.14
2023-04-09T18:35:50.087Z,9.06
2023-04-09T18:37:30.478Z,8.98
2023-04-09T18:39:10.838Z,8.83
2023-04-09T18:40:51.208Z,8.76
2023-04-09T18:42:31.575Z,8.66
2023-04-09T18:44:11.972Z,8.58
2023-04-09T18:45:52.328Z,8.45
2023-04-09T18:47:32.786Z,8.3
2023-04-09T18:49:13.101Z,8.15
2023-04-09T18:50:53.443Z,8.01
2023-04-09T18:52:33.783Z,7.9
2023-04-09T18:54:14.212Z,7.76
2023-04-09T18:55:54.674Z,7.7
2023-04-09T18:57:35.068Z,7.54
2023-04-09T18:59:15.473Z,7.44
2023-04-09T19:00:55.876Z,7.34
2023-04-09T19:02:36.410Z,7.22
2023-04-09T19:04:16.699Z,7.17
2023-04-09T19:05:57.028Z,7.08
2023-04-09T19:07:37.442Z,7.03
2023-04-09T19:09:17.811Z,6.94
2023-04-09T19:10:58.219Z,6.86
2023-04-09T19:12:38.583Z,6.83
2023-04-09T19:14:18.886Z,6.73
2023-04-09T19:15:59.235Z,6.69
2023-04-09T19:17:39.559Z,6.59
2023-04-09T19:19:19.897Z,6.59
2023-04-09T19:21:00.280Z,6.46
2023-04-09T19:22:40.672Z,6.42
2023-04-09T19:24:21.141Z,6.33
2023-04-09T19:26:01.581Z,6.22
2023-04-09T19:27:42.032Z,6.17
2023-04-09T19:29:22.308Z,6.12
2023-04-09T19:31:03.682Z,6.04
2023-04-09T19:32:43.133Z,6.01
2023-04-09T19:34:23.417Z,5.9
2023-04-09T19:36:03.878Z,5.84
2023-04-09T19:37:44.246Z,5.81
2023-04-09T19:39:24.602Z,5.77
2023-04-09T19:41:05.002Z,5.71
2023-04-09T19:42:45.382Z,5.63
2023-04-09T19:44:25.793Z,5.6
2023-04-09T19:46:06.131Z,5.5
2023-04-09T19:47:46.543Z,5.39
2023-04-09T19:49:26.899Z,5.32
2023-04-09T19:51:07.313Z,5.28
2023-04-09T19:52:47.690Z,5.16
2023-04-09T19:54:28.006Z,5.08
2023-04-09T19:56:08.514Z,5.01
2023-04-09T19:57:48.914Z,4.94
2023-04-09T19:59:29.457Z,4.88
2023-04-09T20:01:09.801Z,4.81
2023-04-09T20:02:50.249Z,4.74
2023-04-09T20:04:30.450Z,4.71
2023-04-09T20:06:10.887Z,4.64
2023-04-09T20:07:51.345Z,4.56
2023-04-09T20:09:31.696Z,4.53
2023-04-09T20:11:12.196Z,4.46
2023-04-09T20:12:52.592Z,4.39
2023-04-09T20:14:32.939Z,4.37
2023-04-09T20:16:13.395Z,4.29
2023-04-09T20:17:53.812Z,4.23
2023-04-09T20:19:34.176Z,4.17
2023-04-09T20:21:14.693Z,4.2
2023-04-09T20:22:56.485Z,4.16
2023-04-09T20:24:35.561Z,4.12
2023-04-09T20:26:15.949Z,4.01
2023-04-09T20:27:56.393Z,3.95
2023-04-09T20:29:36.672Z,3.95
2023-04-09T20:31:17.040Z,3.88
2023-04-09T20:32:57.320Z,3.85
2023-04-09T20:34:37.594Z,3.88
2023-04-09T20:36:17.953Z,3.84
2023-04-09T20:37:58.206Z,3.79
2023-04-09T20:39:38.625Z,3.74
2023-04-09T20:41:18.991Z,3.67
2023-04-09T20:42:59.427Z,3.61
2023-04-09T20:44:39.599Z,3.58
2023-04-09T20:46:20.150Z,3.5
2023-04-09T20:48:00.357Z,3.43
2023-04-09T20:49:40.709Z,3.37
2023-04-09T20:51:21.088Z,3.37
2023-04-09T20:53:01.456Z,3.37
2023-04-09T20:54:41.824Z,3.27
2023-04-09T20:56:22.243Z,3.27
2023-04-09T20:58:02.637Z,3.29
2023-04-09T20:59:43.007Z,3.22
2023-04-09T21:01:23.432Z,3.09
2023-04-09T21:03:04.080Z,3.08
2023-04-09T21:04:44.324Z,3.02
2023-04-09T21:06:24.674Z,2.96
2023-04-09T21:08:05.081Z,2.95
2023-04-09T21:09:45.524Z,2.88
2023-04-09T21:11:26.017Z,2.88
2023-04-09T21:13:06.365Z,2.87
2023-04-09T21:14:46.847Z,2.82
2023-04-09T21:16:27.181Z,2.79
2023-04-09T21:18:07.547Z,2.78
2023-04-09T21:19:47.864Z,2.74
2023-04-09T21:21:28.187Z,2.69
2023-04-09T21:23:08.505Z,2.68
2023-04-09T21:24:48.915Z,2.62
2023-04-09T21:26:38.415Z,2.61
2023-04-09T21:28:09.635Z,2.55
2023-04-09T21:29:50.100Z,2.48
2023-04-09T21:31:30.695Z,2.5
2023-04-09T21:33:10.922Z,2.47
2023-04-09T21:34:51.312Z,2.41
2023-04-09T21:36:31.654Z,2.4
2023-04-09T21:38:12.106Z,2.34
2023-04-09T21:39:52.481Z,2.27
2023-04-09T21:41:32.925Z,2.22
2023-04-09T21:43:13.394Z,2.24
2023-04-09T21:44:53.832Z,2.27
2023-04-09T21:46:34.242Z,2.22
2023-04-09T21:48:14.632Z,2.2
2023-04-09T21:49:55.064Z,2.16
2023-04-09T21:51:35.471Z,2.1
2023-04-09T21:53:16.033Z,2.09
2023-04-09T21:54:56.345Z,2.03
2023-04-09T21:56:36.633Z,2.01
2023-04-09T21:58:17.016Z,2.02
2023-04-09T21:59:57.369Z,2.02
2023-04-09T22:01:37.897Z,1.95